sensor_id;sensor_type;location;lat;lon;timestamp;pressure;altitude;pressure_sealevel;temperature;humidity
20019;BME280;10170;42.502;26.526;2022-08-11T00:01:04;99621.28;;;21.10;100.00
20019;BME280;10170;42.502;26.526;2022-08-11T00:03:33;99628.06;;;21.08;100.00
20019;BME280;10170;42.502;26.526;2022-08-11T00:06:10;99611.88;;;21.03;100.00
20019;BME280;10170;42.502;26.526;2022-08-11T00:08:41;99612.38;;;21.05;100.00
20019;BME280;10170;42.502;26.526;2022-08-11T00:11:10;99630.50;;;21.09;100.00
20019;BME280;10170;42.502;26.526;2022-08-11T00:13:42;99623.19;;;21.05;100.00
20019;BME280;10170;42.502;26.526;2022-08-11T00:16:16;99618.84;;;21.14;100.00
20019;BME280;10170;42.502;26.526;2022-08-11T00:18:53;99554.31;;;20.77;100.00
20019;BME280;10170;42.502;26.526;2022-08-11T00:21:24;99622.63;;;21.18;100.00
20019;BME280;10170;42.502;26.526;2022-08-11T00:24:11;99615.59;;;21.17;100.00
20019;BME280;10170;42.502;26.526;2022-08-11T00:26:38;99612.38;;;21.05;100.00
20019;BME280;10170;42.502;26.526;2022-08-11T00:29:10;99572.94;;;20.78;100.00
20019;BME280;10170;42.502;26.526;2022-08-11T00:31:43;99606.97;;;20.94;100.00
20019;BME280;10170;42.502;26.526;2022-08-11T00:34:11;99601.88;;;20.78;100.00
20019;BME280;10170;42.502;26.526;2022-08-11T00:37:22;99617.00;;;20.84;100.00
20019;BME280;10170;42.502;26.526;2022-08-11T00:39:31;99617.81;;;20.89;100.00
20019;BME280;10170;42.502;26.526;2022-08-11T00:42:05;99625.34;;;20.97;100.00
20019;BME280;10170;42.502;26.526;2022-08-11T00:44:37;99626.44;;;20.96;100.00
20019;BME280;10170;42.502;26.526;2022-08-11T00:47:27;99624.03;;;20.90;100.00
20019;BME280;10170;42.502;26.526;2022-08-11T01:06:37;99634.03;;;20.89;100.00
20019;BME280;10170;42.502;26.526;2022-08-11T01:09:17;99621.06;;;20.86;100.00
20019;BME280;10170;42.502;26.526;2022-08-11T01:23:38;99624.00;;;20.95;100.00
20019;BME280;10170;42.502;26.526;2022-08-11T01:46:55;99610.28;;;20.66;100.00
20019;BME280;10170;42.502;26.526;2022-08-11T01:49:47;99614.84;;;20.81;100.00
20019;BME280;10170;42.502;26.526;2022-08-11T01:52:49;99615.41;;;20.68;100.00
20019;BME280;10170;42.502;26.526;2022-08-11T01:55:36;99623.25;;;20.59;100.00
20019;BME280;10170;42.502;26.526;2022-08-11T02:03:42;99616.50;;;20.47;100.00
20019;BME280;10170;42.502;26.526;2022-08-11T02:11:36;99621.91;;;20.27;100.00
20019;BME280;10170;42.502;26.526;2022-08-11T02:14:15;99632.44;;;20.23;100.00
20019;BME280;10170;42.502;26.526;2022-08-11T02:19:56;99627.59;;;20.20;100.00
20019;BME280;10170;42.502;26.526;2022-08-11T02:25:55;99620.00;;;20.17;100.00
20019;BME280;10170;42.502;26.526;2022-08-11T02:28:34;99630.28;;;20.20;100.00
20019;BME280;10170;42.502;26.526;2022-08-11T02:35:13;99615.63;;;19.96;100.00
20019;BME280;10170;42.502;26.526;2022-08-11T02:38:04;99634.56;;;20.11;100.00
20019;BME280;10170;42.502;26.526;2022-08-11T02:41:13;99634.56;;;20.11;100.00
20019;BME280;10170;42.502;26.526;2022-08-11T02:46:47;99632.38;;;19.93;100.00
20019;BME280;10170;42.502;26.526;2022-08-11T02:49:52;99641.56;;;20.07;100.00
20019;BME280;10170;42.502;26.526;2022-08-11T02:55:17;99644.00;;;20.14;100.00
20019;BME280;10170;42.502;26.526;2022-08-11T03:01:11;99648.03;;;20.06;100.00
20019;BME280;10170;42.502;26.526;2022-08-11T03:04:09;99628.03;;;19.97;100.00
20019;BME280;10170;42.502;26.526;2022-08-11T03:06:55;99640.78;;;20.17;100.00
20019;BME280;10170;42.502;26.526;2022-08-11T03:09:41;99646.69;;;20.09;100.00
20019;BME280;10170;42.502;26.526;2022-08-11T03:12:18;99645.09;;;20.13;100.00
20019;BME280;10170;42.502;26.526;2022-08-11T03:15:30;99641.03;;;20.15;100.00
20019;BME280;10170;42.502;26.526;2022-08-11T03:18:39;99643.44;;;20.12;100.00
20019;BME280;10170;42.502;26.526;2022-08-11T03:21:15;99642.91;;;20.10;100.00
20019;BME280;10170;42.502;26.526;2022-08-11T03:24:24;99636.72;;;20.09;100.00
20019;BME280;10170;42.502;26.526;2022-08-11T03:30:38;99643.72;;;20.05;100.00
20019;BME280;10170;42.502;26.526;2022-08-11T03:33:18;99642.63;;;20.06;100.00
20019;BME280;10170;42.502;26.526;2022-08-11T03:39:00;99628.88;;;20.13;100.00
20019;BME280;10170;42.502;26.526;2022-08-11T03:41:39;99634.88;;;20.20;100.00
20019;BME280;10170;42.502;26.526;2022-08-11T03:53:08;99636.75;;;20.49;100.00
20019;BME280;10170;42.502;26.526;2022-08-11T04:07:41;99650.25;;;20.49;100.00
20019;BME280;10170;42.502;26.526;2022-08-11T04:16:14;99651.59;;;20.67;100.00
20019;BME280;10170;42.502;26.526;2022-08-11T04:30:03;99652.16;;;20.99;100.00
20019;BME280;10170;42.502;26.526;2022-08-11T04:40:55;99656.88;;;21.52;100.00
20019;BME280;10170;42.502;26.526;2022-08-11T04:55:52;99664.31;;;21.90;100.00
20019;BME280;10170;42.502;26.526;2022-08-11T05:11:19;99651.03;;;22.66;100.00
20019;BME280;10170;42.502;26.526;2022-08-11T05:17:03;99636.69;;;23.18;100.00
20019;BME280;10170;42.502;26.526;2022-08-11T05:19:50;99653.38;;;23.35;100.00
20019;BME280;10170;42.502;26.526;2022-08-11T05:22:37;99646.91;;;23.55;98.95
20019;BME280;10170;42.502;26.526;2022-08-11T05:25:30;99649.53;;;23.60;100.00
20019;BME280;10170;42.502;26.526;2022-08-11T05:28:52;99652.81;;;23.80;98.82
20019;BME280;10170;42.502;26.526;2022-08-11T05:31:54;99636.63;;;23.52;99.64
20019;BME280;10170;42.502;26.526;2022-08-11T05:34:46;99660.75;;;23.77;100.00
20019;BME280;10170;42.502;26.526;2022-08-11T05:40:00;99660.63;;;23.63;100.00
20019;BME280;10170;42.502;26.526;2022-08-11T05:43:00;99662.47;;;23.21;100.00
20019;BME280;10170;42.502;26.526;2022-08-11T05:46:04;99660.41;;;23.36;100.00
20019;BME280;10170;42.502;26.526;2022-08-11T05:48:51;99668.06;;;23.76;100.00
20019;BME280;10170;42.502;26.526;2022-08-11T05:51:41;99653.25;;;23.87;100.00
20019;BME280;10170;42.502;26.526;2022-08-11T05:54:39;99653.16;;;23.55;100.00
20019;BME280;10170;42.502;26.526;2022-08-11T05:57:35;99662.63;;;24.00;100.00
20019;BME280;10170;42.502;26.526;2022-08-11T06:00:20;99662.31;;;24.20;100.00
20019;BME280;10170;42.502;26.526;2022-08-11T06:02:55;99667.41;;;24.77;92.32
20019;BME280;10170;42.502;26.526;2022-08-11T06:05:33;99658.19;;;24.41;89.12
20019;BME280;10170;42.502;26.526;2022-08-11T06:08:10;99655.72;;;24.26;92.06
20019;BME280;10170;42.502;26.526;2022-08-11T06:10:42;99673.81;;;24.49;89.67
20019;BME280;10170;42.502;26.526;2022-08-11T06:13:14;99669.34;;;24.77;89.49
20019;BME280;10170;42.502;26.526;2022-08-11T06:15:46;99656.16;;;24.84;86.76
20019;BME280;10170;42.502;26.526;2022-08-11T06:18:14;99659.69;;;24.84;88.12
20019;BME280;10170;42.502;26.526;2022-08-11T06:20:51;99662.03;;;25.04;84.36
20019;BME280;10170;42.502;26.526;2022-08-11T06:23:21;99650.34;;;25.31;80.93
20019;BME280;10170;42.502;26.526;2022-08-11T06:25:51;99667.66;;;26.03;74.85
20019;BME280;10170;42.502;26.526;2022-08-11T06:28:31;99639.34;;;25.90;75.45
20019;BME280;10170;42.502;26.526;2022-08-11T06:30:59;99641.59;;;25.75;73.51
20019;BME280;10170;42.502;26.526;2022-08-11T06:33:39;99659.44;;;25.67;75.64
20019;BME280;10170;42.502;26.526;2022-08-11T06:36:26;99661.31;;;25.94;73.34
20019;BME280;10170;42.502;26.526;2022-08-11T06:39:20;99649.53;;;26.34;70.14
20019;BME280;10170;42.502;26.526;2022-08-11T06:41:58;99648.28;;;26.18;67.85
20019;BME280;10170;42.502;26.526;2022-08-11T06:44:32;99642.16;;;26.35;68.66
20019;BME280;10170;42.502;26.526;2022-08-11T06:47:12;99643.72;;;26.71;65.71
20019;BME280;10170;42.502;26.526;2022-08-11T06:49:44;99646.97;;;27.35;62.66
20019;BME280;10170;42.502;26.526;2022-08-11T06:52:33;99649.31;;;27.58;62.57
20019;BME280;10170;42.502;26.526;2022-08-11T06:55:11;99627.31;;;27.24;60.69
20019;BME280;10170;42.502;26.526;2022-08-11T06:58:00;99647.59;;;26.70;62.73
20019;BME280;10170;42.502;26.526;2022-08-11T07:00:47;99594.91;;;27.00;61.58
20019;BME280;10170;42.502;26.526;2022-08-11T07:03:16;99652.25;;;27.31;61.20
20019;BME280;10170;42.502;26.526;2022-08-11T07:05:52;99651.59;;;27.82;62.31
20019;BME280;10170;42.502;26.526;2022-08-11T07:14:53;99665.50;;;28.28;58.26
20019;BME280;10170;42.502;26.526;2022-08-11T07:21:15;99654.91;;;28.61;56.57
20019;BME280;10170;42.502;26.526;2022-08-11T07:24:27;99671.88;;;29.18;55.71
20019;BME280;10170;42.502;26.526;2022-08-11T07:27:41;99672.06;;;29.42;53.25
20019;BME280;10170;42.502;26.526;2022-08-11T07:30:27;99655.25;;;29.23;52.18
20019;BME280;10170;42.502;26.526;2022-08-11T07:32:58;99669.72;;;29.32;54.47
20019;BME280;10170;42.502;26.526;2022-08-11T07:35:32;99671.63;;;29.77;52.05
20019;BME280;10170;42.502;26.526;2022-08-11T07:38:05;99665.03;;;28.69;54.12
20019;BME280;10170;42.502;26.526;2022-08-11T07:40:34;99657.53;;;29.03;52.58
20019;BME280;10170;42.502;26.526;2022-08-11T07:43:02;99664.47;;;29.18;52.53
20019;BME280;10170;42.502;26.526;2022-08-11T07:45:31;99665.47;;;28.96;51.93
20019;BME280;10170;42.502;26.526;2022-08-11T07:48:18;99662.75;;;28.45;52.63
20019;BME280;10170;42.502;26.526;2022-08-11T07:51:04;99654.88;;;28.18;53.49
20019;BME280;10170;42.502;26.526;2022-08-11T07:53:50;99657.91;;;28.85;52.93
20019;BME280;10170;42.502;26.526;2022-08-11T07:56:36;99653.03;;;28.99;52.29
20019;BME280;10170;42.502;26.526;2022-08-11T07:59:25;99657.97;;;28.25;53.78
20019;BME280;10170;42.502;26.526;2022-08-11T08:02:30;99651.88;;;29.17;51.82
20019;BME280;10170;42.502;26.526;2022-08-11T08:05:16;99651.06;;;29.08;53.11
20019;BME280;10170;42.502;26.526;2022-08-11T08:08:03;99633.53;;;29.09;51.52
20019;BME280;10170;42.502;26.526;2022-08-11T08:10:49;99645.75;;;29.49;51.09
20019;BME280;10170;42.502;26.526;2022-08-11T08:13:36;99645.25;;;29.56;51.88
20019;BME280;10170;42.502;26.526;2022-08-11T08:16:22;99638.25;;;29.75;50.32
20019;BME280;10170;42.502;26.526;2022-08-11T08:19:11;99639.06;;;29.96;51.72
20019;BME280;10170;42.502;26.526;2022-08-11T08:21:41;99636.38;;;29.88;52.43
20019;BME280;10170;42.502;26.526;2022-08-11T08:24:11;99626.06;;;30.47;48.70
20019;BME280;10170;42.502;26.526;2022-08-11T08:26:39;99628.25;;;30.53;49.29
20019;BME280;10170;42.502;26.526;2022-08-11T08:29:31;99644.69;;;30.41;49.72
20019;BME280;10170;42.502;26.526;2022-08-11T08:32:18;99630.16;;;30.20;49.25
20019;BME280;10170;42.502;26.526;2022-08-11T08:34:51;99643.44;;;30.71;47.79
20019;BME280;10170;42.502;26.526;2022-08-11T08:37:20;99646.50;;;30.90;47.27
20019;BME280;10170;42.502;26.526;2022-08-11T08:40:08;99628.44;;;30.69;48.82
20019;BME280;10170;42.502;26.526;2022-08-11T08:42:43;99633.44;;;30.87;47.43
20019;BME280;10170;42.502;26.526;2022-08-11T08:45:12;99637.13;;;30.71;48.29
20019;BME280;10170;42.502;26.526;2022-08-11T08:47:51;99632.03;;;30.49;47.20
20019;BME280;10170;42.502;26.526;2022-08-11T08:50:21;99536.31;;;29.73;47.08
20019;BME280;10170;42.502;26.526;2022-08-11T08:53:03;99630.03;;;30.37;46.83
20019;BME280;10170;42.502;26.526;2022-08-11T08:55:31;99632.03;;;29.87;47.56
20019;BME280;10170;42.502;26.526;2022-08-11T08:57:59;99615.72;;;30.11;47.74
20019;BME280;10170;42.502;26.526;2022-08-11T09:00:39;99613.78;;;30.12;47.43
20019;BME280;10170;42.502;26.526;2022-08-11T09:03:07;99627.72;;;30.60;46.34
20019;BME280;10170;42.502;26.526;2022-08-11T09:05:55;99629.16;;;30.78;46.60
20019;BME280;10170;42.502;26.526;2022-08-11T09:08:23;99620.56;;;31.24;45.80
20019;BME280;10170;42.502;26.526;2022-08-11T09:10:50;99616.31;;;29.96;47.43
20019;BME280;10170;42.502;26.526;2022-08-11T09:13:39;99615.09;;;30.79;47.74
20019;BME280;10170;42.502;26.526;2022-08-11T09:16:10;99616.53;;;31.22;45.92
20019;BME280;10170;42.502;26.526;2022-08-11T09:18:38;99592.38;;;31.27;45.39
20019;BME280;10170;42.502;26.526;2022-08-11T09:21:14;99603.78;;;32.01;43.74
20019;BME280;10170;42.502;26.526;2022-08-11T09:24:01;99595.78;;;32.24;44.00
20019;BME280;10170;42.502;26.526;2022-08-11T09:26:52;99593.41;;;31.71;45.32
20019;BME280;10170;42.502;26.526;2022-08-11T09:29:28;99596.31;;;31.38;44.72
20019;BME280;10170;42.502;26.526;2022-08-11T09:31:57;99598.97;;;30.25;46.21
20019;BME280;10170;42.502;26.526;2022-08-11T09:34:25;99598.44;;;31.33;44.88
20019;BME280;10170;42.502;26.526;2022-08-11T09:36:53;99592.34;;;30.58;46.42
20019;BME280;10170;42.502;26.526;2022-08-11T09:39:59;99581.41;;;31.39;46.31
20019;BME280;10170;42.502;26.526;2022-08-11T09:42:45;99584.19;;;32.03;44.87
20019;BME280;10170;42.502;26.526;2022-08-11T09:45:31;99584.38;;;32.38;43.76
20019;BME280;10170;42.502;26.526;2022-08-11T09:48:06;99582.47;;;32.54;43.01
20019;BME280;10170;42.502;26.526;2022-08-11T09:50:39;99589.06;;;32.49;43.94
20019;BME280;10170;42.502;26.526;2022-08-11T09:53:07;99584.56;;;33.35;43.43
20019;BME280;10170;42.502;26.526;2022-08-11T09:55:55;99564.28;;;32.49;43.81
20019;BME280;10170;42.502;26.526;2022-08-11T09:58:23;99579.00;;;33.16;42.87
20019;BME280;10170;42.502;26.526;2022-08-11T10:01:09;99578.22;;;32.56;42.76
20019;BME280;10170;42.502;26.526;2022-08-11T10:03:59;99591.22;;;31.64;44.65
20019;BME280;10170;42.502;26.526;2022-08-11T10:06:27;99573.44;;;31.74;44.50
20019;BME280;10170;42.502;26.526;2022-08-11T10:09:22;99589.88;;;32.38;44.02
20019;BME280;10170;42.502;26.526;2022-08-11T10:11:56;99592.63;;;32.65;43.57
20019;BME280;10170;42.502;26.526;2022-08-11T10:14:26;99580.59;;;32.42;43.63
20019;BME280;10170;42.502;26.526;2022-08-11T10:17:17;99578.16;;;32.13;43.16
20019;BME280;10170;42.502;26.526;2022-08-11T10:19:46;99583.78;;;33.19;41.05
20019;BME280;10170;42.502;26.526;2022-08-11T10:22:31;99590.56;;;33.06;41.99
20019;BME280;10170;42.502;26.526;2022-08-11T10:25:18;99586.94;;;32.03;43.89
20019;BME280;10170;42.502;26.526;2022-08-11T10:28:07;99582.53;;;31.02;45.38
20019;BME280;10170;42.502;26.526;2022-08-11T10:30:55;99581.56;;;31.82;44.09
20019;BME280;10170;42.502;26.526;2022-08-11T10:33:43;99568.63;;;31.83;43.99
20019;BME280;10170;42.502;26.526;2022-08-11T10:36:32;99580.22;;;31.76;44.79
20019;BME280;10170;42.502;26.526;2022-08-11T10:39:02;99574.06;;;32.78;42.81
20019;BME280;10170;42.502;26.526;2022-08-11T10:41:30;99581.06;;;32.44;43.71
20019;BME280;10170;42.502;26.526;2022-08-11T10:44:42;99580.03;;;32.80;43.18
20019;BME280;10170;42.502;26.526;2022-08-11T10:47:11;99573.94;;;32.16;44.27
20019;BME280;10170;42.502;26.526;2022-08-11T10:50:02;99575.63;;;32.48;42.85
20019;BME280;10170;42.502;26.526;2022-08-11T10:52:49;99574.84;;;32.63;41.78
20019;BME280;10170;42.502;26.526;2022-08-11T10:55:36;99566.72;;;32.82;41.86
20019;BME280;10170;42.502;26.526;2022-08-11T10:58:24;99576.94;;;32.97;41.97
20019;BME280;10170;42.502;26.526;2022-08-11T11:01:11;99548.94;;;33.11;41.83
20019;BME280;10170;42.502;26.526;2022-08-11T11:03:41;99561.16;;;32.23;41.42
20019;BME280;10170;42.502;26.526;2022-08-11T11:10:00;99558.19;;;31.88;43.25
20019;BME280;10170;42.502;26.526;2022-08-11T11:12:22;99560.50;;;33.00;41.92
20019;BME280;10170;42.502;26.526;2022-08-11T11:15:08;99544.03;;;32.88;42.55
20019;BME280;10170;42.502;26.526;2022-08-11T11:18:07;99542.94;;;32.46;42.19
20019;BME280;10170;42.502;26.526;2022-08-11T11:20:42;99546.63;;;32.97;41.20
20019;BME280;10170;42.502;26.526;2022-08-11T11:23:24;99542.09;;;32.89;43.36
20019;BME280;10170;42.502;26.526;2022-08-11T11:29:10;99553.13;;;31.39;43.00
20019;BME280;10170;42.502;26.526;2022-08-11T11:36:57;99548.06;;;31.53;43.71
20019;BME280;10170;42.502;26.526;2022-08-11T11:39:27;99540.41;;;31.98;43.39
20019;BME280;10170;42.502;26.526;2022-08-11T11:42:01;99546.56;;;33.44;41.38
20019;BME280;10170;42.502;26.526;2022-08-11T11:44:30;99553.81;;;33.67;39.65
20019;BME280;10170;42.502;26.526;2022-08-11T11:46:59;99551.44;;;33.85;39.90
20019;BME280;10170;42.502;26.526;2022-08-11T11:49:28;99548.72;;;33.35;40.68
20019;BME280;10170;42.502;26.526;2022-08-11T11:51:59;99539.09;;;32.94;40.78
20019;BME280;10170;42.502;26.526;2022-08-11T11:54:30;99545.19;;;32.87;40.34
20019;BME280;10170;42.502;26.526;2022-08-11T11:57:00;99536.28;;;31.92;41.88
20019;BME280;10170;42.502;26.526;2022-08-11T11:59:49;99548.06;;;31.29;43.23
20019;BME280;10170;42.502;26.526;2022-08-11T12:02:36;99539.72;;;32.17;41.81
20019;BME280;10170;42.502;26.526;2022-08-11T12:05:05;99534.06;;;32.68;42.50
20019;BME280;10170;42.502;26.526;2022-08-11T12:07:35;99535.81;;;32.45;42.15
20019;BME280;10170;42.502;26.526;2022-08-11T12:10:35;99539.69;;;31.37;42.75
20019;BME280;10170;42.502;26.526;2022-08-11T12:13:03;99540.28;;;30.94;43.01
20019;BME280;10170;42.502;26.526;2022-08-11T12:15:51;99541.44;;;30.93;43.51
20019;BME280;10170;42.502;26.526;2022-08-11T12:18:40;99539.50;;;31.82;43.10
20019;BME280;10170;42.502;26.526;2022-08-11T12:21:08;99487.81;;;31.24;43.67
20019;BME280;10170;42.502;26.526;2022-08-11T12:23:37;99529.91;;;31.76;42.75
20019;BME280;10170;42.502;26.526;2022-08-11T12:26:37;99522.41;;;32.16;42.85
20019;BME280;10170;42.502;26.526;2022-08-11T12:29:45;99533.78;;;31.75;42.72
20019;BME280;10170;42.502;26.526;2022-08-11T12:32:20;99528.59;;;31.10;42.88
20019;BME280;10170;42.502;26.526;2022-08-11T12:34:48;99530.56;;;30.97;43.83
20019;BME280;10170;42.502;26.526;2022-08-11T12:37:31;99514.41;;;31.32;43.26
20019;BME280;10170;42.502;26.526;2022-08-11T12:40:06;99523.41;;;31.32;43.75
20019;BME280;10170;42.502;26.526;2022-08-11T12:43:19;99522.84;;;31.51;43.51
20019;BME280;10170;42.502;26.526;2022-08-11T12:46:12;99524.91;;;31.18;43.39
20019;BME280;10170;42.502;26.526;2022-08-11T12:48:46;99519.47;;;30.81;44.01
20019;BME280;10170;42.502;26.526;2022-08-11T12:51:38;99527.25;;;30.47;45.07
20019;BME280;10170;42.502;26.526;2022-08-11T12:55:08;99525.28;;;30.35;45.03
20019;BME280;10170;42.502;26.526;2022-08-11T12:57:44;99520.88;;;30.67;45.27
20019;BME280;10170;42.502;26.526;2022-08-11T13:00:31;99517.91;;;30.72;44.85
20019;BME280;10170;42.502;26.526;2022-08-11T13:03:20;99522.25;;;30.73;45.13
20019;BME280;10170;42.502;26.526;2022-08-11T13:06:07;99525.16;;;31.00;43.83
20019;BME280;10170;42.502;26.526;2022-08-11T13:08:37;99527.25;;;31.16;43.73
20019;BME280;10170;42.502;26.526;2022-08-11T13:11:05;99525.41;;;30.95;43.92
20019;BME280;10170;42.502;26.526;2022-08-11T13:14:12;99524.88;;;30.25;44.53
20019;BME280;10170;42.502;26.526;2022-08-11T13:16:41;99518.34;;;29.84;45.75
20019;BME280;10170;42.502;26.526;2022-08-11T13:19:28;99519.38;;;29.92;45.79
20019;BME280;10170;42.502;26.526;2022-08-11T13:21:57;99527.31;;;30.05;45.92
20019;BME280;10170;42.502;26.526;2022-08-11T13:24:24;99525.66;;;30.13;45.76
20019;BME280;10170;42.502;26.526;2022-08-11T13:26:52;99518.06;;;30.31;45.90
20019;BME280;10170;42.502;26.526;2022-08-11T13:29:26;99515.81;;;30.57;44.72
20019;BME280;10170;42.502;26.526;2022-08-11T13:31:55;99509.75;;;30.51;44.91
20019;BME280;10170;42.502;26.526;2022-08-11T13:34:27;99512.91;;;30.86;44.29
20019;BME280;10170;42.502;26.526;2022-08-11T13:36:59;99513.72;;;32.14;42.76
20019;BME280;10170;42.502;26.526;2022-08-11T13:39:29;99520.09;;;33.93;39.71
20019;BME280;10170;42.502;26.526;2022-08-11T13:41:58;99521.66;;;34.32;38.87
20019;BME280;10170;42.502;26.526;2022-08-11T13:44:28;99519.81;;;33.44;39.47
20019;BME280;10170;42.502;26.526;2022-08-11T13:46:59;99518.38;;;34.04;38.72
20019;BME280;10170;42.502;26.526;2022-08-11T13:49:28;99528.34;;;33.93;38.27
20019;BME280;10170;42.502;26.526;2022-08-11T13:51:56;99523.53;;;33.52;39.21
20019;BME280;10170;42.502;26.526;2022-08-11T13:54:30;99515.88;;;33.11;39.12
20019;BME280;10170;42.502;26.526;2022-08-11T13:57:02;99513.84;;;30.90;41.98
20019;BME280;10170;42.502;26.526;2022-08-11T13:59:35;99521.13;;;30.62;42.85
20019;BME280;10170;42.502;26.526;2022-08-11T14:02:21;99525.56;;;30.54;43.13
20019;BME280;10170;42.502;26.526;2022-08-11T14:05:09;99529.34;;;29.96;44.38
20019;BME280;10170;42.502;26.526;2022-08-11T14:07:40;99523.59;;;29.89;44.80
20019;BME280;10170;42.502;26.526;2022-08-11T14:10:11;99501.50;;;29.65;45.29
20019;BME280;10170;42.502;26.526;2022-08-11T14:12:40;99517.69;;;29.99;44.81
20019;BME280;10170;42.502;26.526;2022-08-11T14:15:34;99517.13;;;30.83;43.20
20019;BME280;10170;42.502;26.526;2022-08-11T14:18:05;99521.41;;;30.36;44.32
20019;BME280;10170;42.502;26.526;2022-08-11T14:20:35;99510.06;;;30.26;43.95
20019;BME280;10170;42.502;26.526;2022-08-11T14:23:34;99508.47;;;30.81;43.39
20019;BME280;10170;42.502;26.526;2022-08-11T14:26:04;99505.91;;;31.49;42.43
20019;BME280;10170;42.502;26.526;2022-08-11T14:28:51;99509.28;;;31.70;42.00
20019;BME280;10170;42.502;26.526;2022-08-11T14:31:22;99505.69;;;32.37;41.45
20019;BME280;10170;42.502;26.526;2022-08-11T14:33:53;99513.84;;;32.61;41.19
20019;BME280;10170;42.502;26.526;2022-08-11T14:36:33;99516.00;;;31.21;43.27
20019;BME280;10170;42.502;26.526;2022-08-11T14:39:07;99485.97;;;30.43;43.84
20019;BME280;10170;42.502;26.526;2022-08-11T14:41:40;99515.75;;;30.00;44.84
20019;BME280;10170;42.502;26.526;2022-08-11T14:44:40;99514.31;;;29.61;45.55
20019;BME280;10170;42.502;26.526;2022-08-11T14:47:29;99511.97;;;29.22;46.56
20019;BME280;10170;42.502;26.526;2022-08-11T14:49:58;99515.19;;;29.24;46.81
20019;BME280;10170;42.502;26.526;2022-08-11T14:52:42;99515.03;;;29.21;47.02
20019;BME280;10170;42.502;26.526;2022-08-11T14:55:11;99520.75;;;29.07;47.19
20019;BME280;10170;42.502;26.526;2022-08-11T14:57:59;99509.44;;;29.08;47.49
20019;BME280;10170;42.502;26.526;2022-08-11T15:00:27;99508.16;;;29.15;47.48
20019;BME280;10170;42.502;26.526;2022-08-11T15:02:56;99514.91;;;29.17;47.11
20019;BME280;10170;42.502;26.526;2022-08-11T15:05:48;99499.81;;;29.02;47.05
20019;BME280;10170;42.502;26.526;2022-08-11T15:08:32;99512.06;;;29.05;47.32
20019;BME280;10170;42.502;26.526;2022-08-11T15:11:20;99512.88;;;28.97;47.46
20019;BME280;10170;42.502;26.526;2022-08-11T15:14:08;99511.03;;;29.09;46.96
20019;BME280;10170;42.502;26.526;2022-08-11T15:16:36;99518.81;;;29.08;46.65
20019;BME280;10170;42.502;26.526;2022-08-11T15:19:24;99493.63;;;28.85;47.42
20019;BME280;10170;42.502;26.526;2022-08-11T15:22:02;99506.00;;;28.91;47.71
20019;BME280;10170;42.502;26.526;2022-08-11T15:24:53;99497.09;;;28.73;47.94
20019;BME280;10170;42.502;26.526;2022-08-11T15:27:21;99497.03;;;28.82;47.96
20019;BME280;10170;42.502;26.526;2022-08-11T15:30:08;99502.06;;;28.71;48.15
20019;BME280;10170;42.502;26.526;2022-08-11T15:33:06;99489.34;;;28.67;47.97
20019;BME280;10170;42.502;26.526;2022-08-11T15:35:53;99498.97;;;28.81;48.43
20019;BME280;10170;42.502;26.526;2022-08-11T15:38:48;99506.34;;;28.89;48.51
20019;BME280;10170;42.502;26.526;2022-08-11T15:41:22;99508.19;;;28.77;49.04
20019;BME280;10170;42.502;26.526;2022-08-11T15:44:26;99501.31;;;28.62;49.17
20019;BME280;10170;42.502;26.526;2022-08-11T15:47:35;99498.59;;;28.54;49.31
20019;BME280;10170;42.502;26.526;2022-08-11T15:50:04;99500.69;;;28.48;50.20
20019;BME280;10170;42.502;26.526;2022-08-11T15:52:46;99504.53;;;28.47;50.22
20019;BME280;10170;42.502;26.526;2022-08-11T15:55:15;99498.78;;;28.32;50.80
20019;BME280;10170;42.502;26.526;2022-08-11T15:57:43;99498.09;;;28.43;50.57
20019;BME280;10170;42.502;26.526;2022-08-11T16:00:33;99507.16;;;28.35;51.18
20019;BME280;10170;42.502;26.526;2022-08-11T16:03:31;99502.81;;;28.26;51.81
20019;BME280;10170;42.502;26.526;2022-08-11T16:06:35;99451.41;;;27.93;51.32
20019;BME280;10170;42.502;26.526;2022-08-11T16:09:06;99500.28;;;28.21;52.03
20019;BME280;10170;42.502;26.526;2022-08-11T16:11:45;99507.00;;;28.32;51.47
20019;BME280;10170;42.502;26.526;2022-08-11T16:14:15;99507.50;;;28.25;52.04
20019;BME280;10170;42.502;26.526;2022-08-11T16:17:02;99509.47;;;28.16;51.62
20019;BME280;10170;42.502;26.526;2022-08-11T16:19:31;99516.69;;;28.12;52.03
20019;BME280;10170;42.502;26.526;2022-08-11T16:22:04;99515.91;;;28.03;51.82
20019;BME280;10170;42.502;26.526;2022-08-11T16:24:35;99515.44;;;28.01;51.02
20019;BME280;10170;42.502;26.526;2022-08-11T16:27:24;99509.66;;;27.94;51.57
20019;BME280;10170;42.502;26.526;2022-08-11T16:29:51;99523.81;;;27.96;52.04
20019;BME280;10170;42.502;26.526;2022-08-11T16:32:22;99531.66;;;27.89;52.22
20019;BME280;10170;42.502;26.526;2022-08-11T16:34:59;99538.88;;;27.76;52.52
20019;BME280;10170;42.502;26.526;2022-08-11T16:37:45;99528.75;;;27.77;52.86
20019;BME280;10170;42.502;26.526;2022-08-11T16:40:31;99530.22;;;27.66;52.81
20019;BME280;10170;42.502;26.526;2022-08-11T16:42:59;99541.13;;;27.66;53.28
20019;BME280;10170;42.502;26.526;2022-08-11T16:45:47;99507.78;;;27.30;53.63
20019;BME280;10170;42.502;26.526;2022-08-11T16:48:35;99521.81;;;27.45;52.98
20019;BME280;10170;42.502;26.526;2022-08-11T16:51:11;99536.44;;;27.41;53.98
20019;BME280;10170;42.502;26.526;2022-08-11T16:53:42;99535.47;;;27.45;53.71
20019;BME280;10170;42.502;26.526;2022-08-11T16:56:48;99542.53;;;27.38;53.53
20019;BME280;10170;42.502;26.526;2022-08-11T16:59:36;99548.47;;;27.40;53.85
20019;BME280;10170;42.502;26.526;2022-08-11T17:02:15;99555.53;;;27.32;54.01